createdAt,value
2022-11-17T00:00:28.013Z,97183.03
2022-11-17T00:02:55.079Z,97185.56
2022-11-17T00:05:22.187Z,97181.38
2022-11-17T00:07:49.926Z,97157.63
2022-11-17T00:10:21.303Z,97161.88
2022-11-17T00:13:06.572Z,97144.97
2022-11-17T00:15:33.602Z,97142.78
2022-11-17T00:18:19.281Z,97128.56
2022-11-17T00:21:38.773Z,97121.16
2022-11-17T00:34:34.287Z,97105.78
2022-11-17T00:37:01.564Z,97093.19
2022-11-17T00:39:29.880Z,97095.63
2022-11-17T00:41:57.386Z,97082.94
2022-11-17T00:44:25.634Z,97085.25
2022-11-17T00:46:52.625Z,97090.34
2022-11-17T00:49:25.365Z,97080.09
2022-11-17T00:51:56.433Z,97084.13
2022-11-17T00:54:24.130Z,97086.75
2022-11-17T00:56:51.232Z,97080.78
2022-11-17T00:59:18.146Z,97078.06
2022-11-17T01:01:45.932Z,97083.00
2022-11-17T01:04:15.437Z,97073.66
2022-11-17T01:06:48.758Z,97080.44
2022-11-17T01:09:22.480Z,97063.53
2022-11-17T01:11:52.067Z,97058.34
2022-11-17T01:14:24.467Z,97054.09
2022-11-17T01:16:54.898Z,97050.59
2022-11-17T01:19:23.982Z,97058.00
2022-11-17T01:21:51.142Z,97054.63
2022-11-17T01:24:18.404Z,97045.44
2022-11-17T01:26:46.270Z,97047.94
2022-11-17T01:29:18.643Z,97048.66
2022-11-17T01:31:51.536Z,97043.41
2022-11-17T01:34:19.131Z,97040.88
2022-11-17T01:37:04.724Z,97034.91
2022-11-17T01:39:32.084Z,97025.63
2022-11-17T01:42:10.045Z,97014.50
2022-11-17T01:44:48.143Z,97017.03
2022-11-17T01:47:42.828Z,97011.16
2022-11-17T01:50:34.139Z,97007.72
2022-11-17T01:53:08.455Z,96992.63
2022-11-17T01:55:46.105Z,96988.13
2022-11-17T01:58:21.401Z,96985.53
2022-11-17T02:00:48.288Z,96984.59
2022-11-17T02:03:15.587Z,96997.06
2022-11-17T02:06:12.712Z,96985.25
2022-11-17T02:08:44.995Z,96982.81
2022-11-17T02:11:18.669Z,96978.53
2022-11-17T02:13:46.252Z,96970.88
2022-11-17T02:16:15.517Z,96965.69
2022-11-17T02:18:45.401Z,96958.88
2022-11-17T02:21:45.921Z,96958.06
2022-11-17T02:24:53.971Z,96956.53
2022-11-17T02:27:44.764Z,96949.78
2022-11-17T02:30:18.225Z,96946.28
2022-11-17T02:33:12.486Z,96941.91
2022-11-17T02:36:18.492Z,96941.09
2022-11-17T02:39:14.334Z,96931.22
2022-11-17T02:41:55.323Z,96941.19
2022-11-17T02:44:32.063Z,96939.47
2022-11-17T02:47:09.326Z,96939.53
2022-11-17T02:49:48.485Z,96940.31
2022-11-17T02:52:19.222Z,96940.13
2022-11-17T02:54:46.251Z,96932.41
2022-11-17T02:57:42.399Z,96935.78
2022-11-17T03:00:28.387Z,96935.63
2022-11-17T03:07:10.888Z,96916.09
2022-11-17T03:10:12.616Z,96907.91
2022-11-17T03:13:12.480Z,96889.41
2022-11-17T03:16:11.724Z,96886.22
2022-11-17T03:19:33.455Z,96887.09
2022-11-17T03:22:25.785Z,96896.69
2022-11-17T03:25:04.043Z,96898.59
2022-11-17T03:27:47.224Z,96892.88
2022-11-17T03:30:16.430Z,96892.94
2022-11-17T03:32:52.277Z,96885.41
2022-11-17T03:35:26.989Z,96875.41
2022-11-17T03:41:29.023Z,96873.00
2022-11-17T03:44:01.478Z,96863.84
2022-11-17T03:46:31.776Z,96863.00
2022-11-17T03:49:15.005Z,96857.19
2022-11-17T03:51:42.577Z,96863.09
2022-11-17T03:54:10.503Z,96858.09
2022-11-17T03:56:40.993Z,96850.56
2022-11-17T03:59:18.636Z,96843.19
2022-11-17T04:01:45.826Z,96843.28
2022-11-17T04:04:23.742Z,96842.47
2022-11-17T04:06:54.978Z,96836.72
2022-11-17T04:09:24.577Z,96836.63
2022-11-17T04:12:10.433Z,96836.72
2022-11-17T04:15:09.694Z,96834.94
2022-11-17T04:17:36.750Z,96834.00
2022-11-17T04:20:04.045Z,96837.13
2022-11-17T04:22:30.974Z,96826.81
2022-11-17T04:24:57.877Z,96824.03
2022-11-17T04:27:43.428Z,96830.53
2022-11-17T04:30:11.374Z,96835.53
2022-11-17T04:32:40.365Z,96830.28
2022-11-17T04:35:07.942Z,96825.84
2022-11-17T04:37:35.014Z,96830.66
2022-11-17T04:48:15.708Z,96816.69
2022-11-17T05:11:27.601Z,96833.47
2022-11-17T05:13:55.096Z,96839.19
2022-11-17T05:16:44.478Z,96841.56
2022-11-17T05:19:17.218Z,96840.59
2022-11-17T05:21:44.762Z,96836.31
2022-11-17T05:24:14.399Z,96848.13
2022-11-17T05:26:44.242Z,96834.53
2022-11-17T05:29:16.456Z,96846.28
2022-11-17T05:31:49.699Z,96851.38
2022-11-17T05:34:27.710Z,96851.38
2022-11-17T05:37:21.133Z,96857.38
2022-11-17T05:39:48.167Z,96861.38
2022-11-17T05:42:15.034Z,96856.13
2022-11-17T05:44:41.816Z,96866.97
2022-11-17T05:47:08.591Z,96869.34
2022-11-17T05:49:35.297Z,96868.38
2022-11-17T05:52:02.031Z,96871.75
2022-11-17T05:54:35.105Z,96860.84
2022-11-17T05:57:16.772Z,96869.44
2022-11-17T05:59:57.148Z,96864.50
2022-11-17T06:02:42.764Z,96867.09
2022-11-17T06:05:10.971Z,96863.00
2022-11-17T06:07:40.110Z,96860.47
2022-11-17T06:10:07.970Z,96861.13
2022-11-17T06:12:34.882Z,96856.13
2022-11-17T06:15:01.914Z,96860.31
2022-11-17T06:17:41.005Z,96856.88
2022-11-17T06:20:19.873Z,96865.34
2022-11-17T06:22:48.809Z,96867.03
2022-11-17T06:25:19.341Z,96876.34
2022-11-17T06:28:28.876Z,96872.25
2022-11-17T06:30:56.817Z,96862.47
2022-11-17T06:33:25.743Z,96866.69
2022-11-17T06:35:53.042Z,96866.69
2022-11-17T06:41:48.581Z,96877.09
2022-11-17T06:44:36.086Z,96873.66
2022-11-17T06:47:09.349Z,96887.00
2022-11-17T06:49:39.480Z,96891.19
2022-11-17T06:52:06.382Z,96897.72
2022-11-17T06:54:44.911Z,96900.03
2022-11-17T06:57:13.177Z,96906.72
2022-11-17T06:59:40.397Z,96913.34
2022-11-17T07:02:07.109Z,96926.69
2022-11-17T07:04:33.903Z,96934.28
2022-11-17T07:07:00.684Z,96930.13
2022-11-17T07:09:27.439Z,96940.31
2022-11-17T07:11:54.173Z,96937.00
2022-11-17T07:14:20.870Z,96949.03
2022-11-17T07:16:47.606Z,96944.09
2022-11-17T07:19:14.309Z,96955.94
2022-11-17T07:21:41.073Z,96956.03
2022-11-17T07:24:08.635Z,96965.31
2022-11-17T07:26:35.490Z,96955.16
2022-11-17T07:29:02.216Z,96952.63
2022-11-17T07:31:28.918Z,96959.28
2022-11-17T07:33:55.675Z,96967.72
2022-11-17T07:36:22.679Z,96960.97
2022-11-17T07:38:49.406Z,96962.63
2022-11-17T07:41:16.110Z,96964.34
2022-11-17T07:43:42.873Z,96964.50
2022-11-17T07:46:14.538Z,96976.44
2022-11-17T07:48:43.609Z,96973.22
2022-11-17T07:51:10.492Z,96970.78
2022-11-17T07:53:37.222Z,96973.50
2022-11-17T07:56:10.587Z,96973.50
2022-11-17T07:58:39.162Z,96968.50
2022-11-17T08:01:15.397Z,96971.63
2022-11-17T08:03:44.031Z,96972.25
2022-11-17T08:06:10.932Z,96988.06
2022-11-17T08:08:38.538Z,96981.66
2022-11-17T08:11:08.815Z,96973.06
2022-11-17T08:13:36.271Z,96983.94
2022-11-17T08:16:03.284Z,96986.59
2022-11-17T08:18:31.167Z,96981.28
2022-11-17T08:21:14.835Z,96997.78
2022-11-17T08:23:42.388Z,97004.03
2022-11-17T08:26:11.610Z,97000.25
2022-11-17T08:28:39.188Z,97016.41
2022-11-17T08:31:08.046Z,97001.31
2022-11-17T08:33:35.892Z,97005.28
2022-11-17T08:36:04.629Z,97006.31
2022-11-17T08:38:31.772Z,97019.75
2022-11-17T08:41:02.568Z,97030.81
2022-11-17T08:43:29.884Z,97015.13
2022-11-17T08:45:57.013Z,97014.88
2022-11-17T08:48:24.429Z,97044.03
2022-11-17T08:50:51.897Z,97027.22
2022-11-17T08:53:22.037Z,97043.31
2022-11-17T08:55:49.761Z,97052.31
2022-11-17T08:58:16.727Z,97035.88
2022-11-17T09:00:45.402Z,97042.28
2022-11-17T09:03:12.234Z,97046.78
2022-11-17T09:05:46.988Z,97035.91
2022-11-17T09:11:06.360Z,97032.28
2022-11-17T09:13:33.753Z,97050.34
2022-11-17T09:16:07.180Z,97035.97
2022-11-17T09:18:36.931Z,97046.97
2022-11-17T09:21:15.710Z,97048.31
2022-11-17T09:23:42.844Z,97060.09
2022-11-17T09:26:13.546Z,97064.66
2022-11-17T09:28:40.757Z,97066.41
2022-11-17T09:31:17.758Z,97070.06
2022-11-17T09:33:45.424Z,97068.25
2022-11-17T09:36:14.744Z,97077.28
2022-11-17T09:38:42.136Z,97078.16
2022-11-17T09:41:38.414Z,97083.72
2022-11-17T09:44:24.279Z,97088.66
2022-11-17T09:47:37.144Z,97075.34
2022-11-17T09:50:25.546Z,97075.09
2022-11-17T09:53:36.433Z,97086.16
2022-11-17T09:56:08.747Z,97079.50
2022-11-17T09:58:46.597Z,97095.56
2022-11-17T10:01:17.272Z,97080.81
2022-11-17T10:03:47.363Z,97091.09
2022-11-17T10:06:20.813Z,97089.03
2022-11-17T10:09:02.713Z,97090.38
2022-11-17T10:11:38.393Z,97097.53
2022-11-17T10:14:17.213Z,97087.50
2022-11-17T10:16:52.762Z,97095.75
2022-11-17T10:19:31.150Z,97110.69
2022-11-17T10:22:03.774Z,97116.88
2022-11-17T10:24:54.850Z,97119.75
2022-11-17T10:27:34.384Z,97114.53
2022-11-17T10:30:19.087Z,97123.75
2022-11-17T10:32:56.068Z,97126.78
2022-11-17T10:35:35.531Z,97132.41
2022-11-17T10:38:17.770Z,97140.47
2022-11-17T10:40:44.420Z,97134.44
2022-11-17T10:43:14.198Z,97136.53
2022-11-17T10:45:45.648Z,97144.19
2022-11-17T10:48:27.687Z,97150.44
2022-11-17T10:51:00.969Z,97144.69
2022-11-17T10:53:44.874Z,97139.03
2022-11-17T10:56:21.472Z,97146.75
2022-11-17T10:59:03.708Z,97155.66
2022-11-17T11:01:35.284Z,97154.00
2022-11-17T11:04:05.125Z,97158.13
2022-11-17T11:06:34.735Z,97158.66
2022-11-17T11:09:17.873Z,97175.47
2022-11-17T11:11:49.123Z,97163.88
2022-11-17T11:14:18.390Z,97159.13
2022-11-17T11:16:50.706Z,97159.38
2022-11-17T11:19:20.106Z,97161.03
2022-11-17T11:22:18.291Z,97165.16
2022-11-17T11:25:26.207Z,97166.66
2022-11-17T11:28:21.769Z,97172.91
2022-11-17T11:31:28.398Z,97162.25
2022-11-17T11:34:35.546Z,97172.97
2022-11-17T11:37:16.746Z,97150.38
2022-11-17T11:40:07.569Z,97158.56
2022-11-17T11:42:56.583Z,97174.59
2022-11-17T11:46:14.966Z,97167.13
2022-11-17T11:48:41.765Z,97167.72
2022-11-17T11:51:08.582Z,97152.81
2022-11-17T11:53:52.493Z,97149.75
2022-11-17T11:56:39.779Z,97147.91
2022-11-17T11:59:49.212Z,97154.88
2022-11-17T12:02:41.013Z,97155.94
2022-11-17T12:05:13.309Z,97150.00
2022-11-17T12:08:10.342Z,97163.28
2022-11-17T12:10:54.262Z,97168.78
2022-11-17T12:13:23.861Z,97176.19
2022-11-17T12:15:51.134Z,97177.00
2022-11-17T12:18:17.795Z,97179.44
2022-11-17T12:21:12.670Z,97171.09
2022-11-17T12:24:01.876Z,97180.59
2022-11-17T12:26:32.613Z,97184.84
2022-11-17T12:29:21.376Z,97173.94
2022-11-17T12:31:51.996Z,97172.03
2022-11-17T12:34:27.438Z,97166.63
2022-11-17T12:37:21.948Z,97169.03
2022-11-17T12:40:05.795Z,97166.19
2022-11-17T12:42:35.152Z,97158.69
2022-11-17T12:45:05.322Z,97172.41
2022-11-17T12:47:44.347Z,97181.13
2022-11-17T12:50:19.180Z,97166.59
2022-11-17T12:53:17.118Z,97175.09
2022-11-17T12:55:58.813Z,97171.63
2022-11-17T12:58:29.818Z,97166.72
2022-11-17T13:01:30.888Z,97165.31
2022-11-17T13:04:12.091Z,97175.03
2022-11-17T13:06:39.314Z,97174.66
2022-11-17T13:09:11.861Z,97180.56
2022-11-17T13:11:38.803Z,97184.97
2022-11-17T13:14:23.634Z,97188.47
2022-11-17T13:16:51.588Z,97189.34
2022-11-17T13:19:41.604Z,97190.28
2022-11-17T13:22:11.130Z,97186.28
2022-11-17T13:24:40.527Z,97189.88
2022-11-17T13:27:23.214Z,97189.16
2022-11-17T13:30:24.228Z,97190.28
2022-11-17T13:32:51.159Z,97200.84
2022-11-17T13:35:26.712Z,97200.91
2022-11-17T13:38:19.652Z,97208.13
2022-11-17T13:40:48.628Z,97212.63
2022-11-17T13:43:20.325Z,97213.63
2022-11-17T13:45:48.948Z,97216.31
2022-11-17T13:48:37.885Z,97221.50
2022-11-17T13:51:38.412Z,97222.44
2022-11-17T13:54:11.279Z,97235.34
2022-11-17T13:56:55.116Z,97225.00
2022-11-17T13:59:32.266Z,97223.97
2022-11-17T14:02:19.034Z,97223.13
2022-11-17T14:05:13.260Z,97231.66
2022-11-17T14:07:42.622Z,97233.09
2022-11-17T14:10:32.949Z,97230.31
2022-11-17T14:13:02.455Z,97217.91
2022-11-17T14:15:34.452Z,97228.78
2022-11-17T14:18:18.340Z,97237.19
2022-11-17T14:20:45.236Z,97235.53
2022-11-17T14:23:11.875Z,97242.59
2022-11-17T14:25:42.538Z,97231.03
2022-11-17T14:28:18.177Z,97230.72
2022-11-17T14:30:53.200Z,97244.13
2022-11-17T14:33:21.506Z,97244.63
2022-11-17T14:35:59.090Z,97240.84
2022-11-17T14:38:26.068Z,97245.31
2022-11-17T14:40:53.778Z,97248.38
2022-11-17T14:43:22.338Z,97252.97
2022-11-17T14:45:52.070Z,97250.09
2022-11-17T14:48:20.080Z,97249.66
2022-11-17T14:50:48.416Z,97249.22
2022-11-17T14:53:15.267Z,97259.72
2022-11-17T14:55:42.025Z,97261.84
2022-11-17T14:58:09.834Z,97253.84
2022-11-17T15:00:36.833Z,97257.78
2022-11-17T15:03:03.859Z,97272.59
2022-11-17T15:05:30.587Z,97280.81
2022-11-17T15:07:57.571Z,97281.13
2022-11-17T15:10:24.361Z,97275.47
2022-11-17T15:12:51.153Z,97284.94
2022-11-17T15:15:18.124Z,97283.41
2022-11-17T15:17:44.861Z,97290.34
2022-11-17T15:20:11.980Z,97299.94
2022-11-17T15:22:38.745Z,97287.53
2022-11-17T15:25:06.234Z,97301.59
2022-11-17T15:27:32.932Z,97306.88
2022-11-17T15:29:59.624Z,97312.34
2022-11-17T15:32:26.377Z,97310.97
2022-11-17T15:34:53.183Z,97317.22
2022-11-17T15:37:19.919Z,97309.78
2022-11-17T15:39:46.595Z,97312.47
2022-11-17T15:42:13.303Z,97317.13
2022-11-17T15:44:40.079Z,97318.31
2022-11-17T15:47:06.812Z,97325.41
2022-11-17T15:49:33.481Z,97323.22
2022-11-17T15:52:00.220Z,97324.22
2022-11-17T15:54:26.974Z,97331.69
2022-11-17T15:56:53.745Z,97331.22
2022-11-17T15:59:20.735Z,97340.00
2022-11-17T16:01:47.734Z,97334.44
2022-11-17T16:04:15.926Z,97341.53
2022-11-17T16:06:45.346Z,97335.84
2022-11-17T16:09:13.519Z,97347.22
2022-11-17T16:11:40.733Z,97349.13
2022-11-17T16:14:07.478Z,97348.56
2022-11-17T16:16:37.905Z,97357.13
2022-11-17T16:19:05.974Z,97359.03
2022-11-17T16:21:32.791Z,97352.28
2022-11-17T16:24:00.809Z,97359.19
2022-11-17T16:26:29.735Z,97362.72
2022-11-17T16:29:02.893Z,97361.13
2022-11-17T16:31:35.315Z,97363.84
2022-11-17T16:34:10.493Z,97358.06
2022-11-17T16:36:40.503Z,97358.91
2022-11-17T16:39:14.024Z,97359.00
2022-11-17T16:41:45.214Z,97363.44
2022-11-17T16:44:16.419Z,97355.22
2022-11-17T16:46:46.711Z,97361.31
2022-11-17T16:49:16.983Z,97369.13
2022-11-17T16:51:53.644Z,97362.59
2022-11-17T16:54:20.982Z,97367.13
2022-11-17T16:56:48.304Z,97360.66
2022-11-17T16:59:15.796Z,97365.25
2022-11-17T17:01:42.874Z,97372.22
2022-11-17T17:04:12.182Z,97361.44
2022-11-17T17:06:41.966Z,97367.59
2022-11-17T17:09:11.624Z,97364.47
2022-11-17T17:11:38.739Z,97375.00
2022-11-17T17:14:09.300Z,97371.09
2022-11-17T17:16:37.740Z,97378.16
2022-11-17T17:19:09.425Z,97375.88
2022-11-17T17:21:37.873Z,97388.72
2022-11-17T17:24:05.374Z,97386.50
2022-11-17T17:26:34.012Z,97387.41
2022-11-17T17:29:03.459Z,97398.66
2022-11-17T17:31:37.173Z,97396.16
2022-11-17T17:34:06.248Z,97396.22
2022-11-17T17:36:34.583Z,97394.75
2022-11-17T17:39:02.200Z,97399.97
2022-11-17T17:41:33.297Z,97393.31
2022-11-17T17:44:06.500Z,97396.91
2022-11-17T17:46:38.546Z,97397.88
2022-11-17T17:49:06.473Z,97409.03
2022-11-17T17:51:39.961Z,97403.88
2022-11-17T17:54:08.758Z,97413.97
2022-11-17T17:56:35.557Z,97413.56
2022-11-17T17:59:02.317Z,97418.22
2022-11-17T18:01:35.376Z,97426.06
2022-11-17T18:04:05.441Z,97432.22
2022-11-17T18:06:38.493Z,97436.63
2022-11-17T18:09:10.700Z,97440.97
2022-11-17T18:11:37.593Z,97438.63
2022-11-17T18:14:04.582Z,97444.56
2022-11-17T18:16:33.586Z,97440.44
2022-11-17T18:19:03.947Z,97444.78
2022-11-17T18:21:31.110Z,97443.19
2022-11-17T18:24:01.269Z,97444.16
2022-11-17T18:26:34.283Z,97449.31
2022-11-17T18:29:27.365Z,97447.81
2022-11-17T18:31:54.568Z,97443.72
2022-11-17T18:34:24.067Z,97442.13
2022-11-17T18:36:53.268Z,97449.75
2022-11-17T18:39:21.168Z,97452.31
2022-11-17T18:41:48.275Z,97451.53
2022-11-17T18:44:18.317Z,97450.66
2022-11-17T18:46:45.683Z,97451.47
2022-11-17T18:49:12.445Z,97461.72
2022-11-17T18:51:39.223Z,97465.97
2022-11-17T18:54:06.049Z,97471.88
2022-11-17T18:56:36.130Z,97478.69
2022-11-17T18:59:10.956Z,97478.75
2022-11-17T19:01:42.826Z,97496.56
2022-11-17T19:04:13.457Z,97488.16
2022-11-17T19:06:40.493Z,97496.69
2022-11-17T19:09:08.189Z,97490.78
2022-11-17T19:11:34.987Z,97494.22
2022-11-17T19:14:03.051Z,97491.75
2022-11-17T19:16:33.646Z,97497.09
2022-11-17T19:19:00.474Z,97484.56
2022-11-17T19:21:31.641Z,97493.06
2022-11-17T19:24:01.776Z,97490.75
2022-11-17T19:26:35.795Z,97494.25
2022-11-17T19:29:15.716Z,97487.66
2022-11-17T19:31:43.748Z,97495.41
2022-11-17T19:34:10.706Z,97504.84
2022-11-17T19:36:37.494Z,97502.34
2022-11-17T19:39:04.956Z,97506.69
2022-11-17T19:41:35.981Z,97505.91
2022-11-17T19:44:06.835Z,97500.97
2022-11-17T19:46:36.074Z,97515.41
2022-11-17T19:49:05.841Z,97513.06
2022-11-17T19:51:36.553Z,97514.09
2022-11-17T19:54:07.224Z,97517.59
2022-11-17T19:56:35.186Z,97520.19
2022-11-17T19:59:03.333Z,97522.84
2022-11-17T20:01:31.917Z,97526.31
2022-11-17T20:04:00.552Z,97533.19
2022-11-17T20:06:34.658Z,97534.16
2022-11-17T20:09:01.542Z,97528.38
2022-11-17T20:11:29.031Z,97536.06
2022-11-17T20:13:56.260Z,97538.69
2022-11-17T20:16:26.557Z,97540.50
2022-11-17T20:18:56.801Z,97540.66
2022-11-17T20:21:25.652Z,97539.88
2022-11-17T20:23:52.825Z,97541.72
2022-11-17T20:26:26.507Z,97546.13
2022-11-17T20:28:55.154Z,97551.25
2022-11-17T20:31:25.503Z,97554.72
2022-11-17T20:33:59.450Z,97562.50
2022-11-17T20:36:28.584Z,97568.59
2022-11-17T20:39:01.807Z,97569.53
2022-11-17T20:41:29.738Z,97580.72
2022-11-17T20:44:00.344Z,97574.84
2022-11-17T20:46:27.606Z,97578.53
2022-11-17T20:48:54.865Z,97582.09
2022-11-17T20:51:24.390Z,97587.28
2022-11-17T20:53:51.860Z,97592.47
2022-11-17T20:56:19.648Z,97586.53
2022-11-17T20:58:46.889Z,97589.13
2022-11-17T21:01:20.112Z,97595.91
2022-11-17T21:03:47.519Z,97601.03
2022-11-17T21:06:15.502Z,97595.97
2022-11-17T21:08:44.410Z,97599.38
2022-11-17T21:11:33.674Z,97606.19
2022-11-17T21:14:01.265Z,97612.19
2022-11-17T21:16:28.687Z,97599.53
2022-11-17T21:18:55.479Z,97603.75
2022-11-17T21:21:22.302Z,97612.28
2022-11-17T21:23:54.156Z,97613.16
2022-11-17T21:26:22.806Z,97612.38
2022-11-17T21:28:50.373Z,97619.22
2022-11-17T21:31:21.221Z,97621.00
2022-11-17T21:33:57.349Z,97621.94
2022-11-17T21:36:27.594Z,97633.03
2022-11-17T21:38:56.298Z,97631.56
2022-11-17T21:41:27.182Z,97625.41
2022-11-17T21:43:57.743Z,97638.38
2022-11-17T21:46:27.573Z,97650.41
2022-11-17T21:48:56.816Z,97646.41
2022-11-17T21:51:33.644Z,97647.38
2022-11-17T21:54:04.263Z,97644.09
2022-11-17T21:56:31.941Z,97650.97
2022-11-17T21:59:05.564Z,97645.13
2022-11-17T22:01:34.549Z,97640.09
2022-11-17T22:04:02.337Z,97641.06
2022-11-17T22:06:30.220Z,97649.53
2022-11-17T22:08:58.611Z,97643.72
2022-11-17T22:11:35.553Z,97645.47
2022-11-17T22:14:20.186Z,97640.47
2022-11-17T22:16:52.534Z,97644.75
2022-11-17T22:19:23.522Z,97653.28
2022-11-17T22:21:54.685Z,97652.34
2022-11-17T22:24:23.299Z,97646.34
2022-11-17T22:26:51.599Z,97653.06
2022-11-17T22:29:21.714Z,97664.75
2022-11-17T22:31:49.878Z,97663.75
2022-11-17T22:34:17.907Z,97659.38
2022-11-17T22:36:44.804Z,97663.53
2022-11-17T22:39:11.808Z,97662.59
2022-11-17T22:41:39.880Z,97665.13
2022-11-17T22:44:06.864Z,97669.38
2022-11-17T22:46:34.997Z,97670.25
2022-11-17T22:49:01.850Z,97676.13
2022-11-17T22:51:47.028Z,97670.19
2022-11-17T22:54:13.814Z,97676.03
2022-11-17T22:56:40.565Z,97673.44
2022-11-17T22:59:07.495Z,97681.88
2022-11-17T23:01:34.352Z,97680.19
2022-11-17T23:04:01.132Z,97689.47
2022-11-17T23:06:27.844Z,97696.28
2022-11-17T23:08:57.325Z,97685.28
2022-11-17T23:11:37.529Z,97681.16
2022-11-17T23:14:07.869Z,97699.97
2022-11-17T23:16:35.312Z,97704.28
2022-11-17T23:19:02.022Z,97705.22
2022-11-17T23:21:28.908Z,97702.72
2022-11-17T23:23:56.018Z,97711.28
2022-11-17T23:26:22.825Z,97703.72
2022-11-17T23:28:49.603Z,97713.81
2022-11-17T23:31:17.908Z,97716.31
2022-11-17T23:33:47.582Z,97716.25
2022-11-17T23:36:21.082Z,97718.72
2022-11-17T23:38:49.974Z,97715.31
2022-11-17T23:41:19.615Z,97720.31
2022-11-17T23:43:49.252Z,97717.72
2022-11-17T23:46:19.139Z,97724.34
2022-11-17T23:48:46.011Z,97716.78
2022-11-17T23:51:17.308Z,97726.81
2022-11-17T23:53:44.550Z,97722.56
2022-11-17T23:56:12.373Z,97716.66
2022-11-17T23:58:39.980Z,97718.50
